Pigeon Falls, Wisconsin
Current Conditions -  °F | °C
As of 4:35 AM on Saturday 25 Oct 2014 (Local Time) from KBCK Reporting Station
Clear Clear  
Wind Chill: 52°   Ceiling: Unl
Heat Index: 52°   Visibility: 10mi
Dew Point: 50°   Wind: 5mph
Humidity: 94%   Direction: 270°W
Pressure: 29.9"   Gusts: NA
Location:  44.43°N, 91.21°W
Report Text: KBCK 250935Z AUTO 27004KT 10SM CLR 11/10 A2990 RMK AO2 T01110101
Loading
Personal Weather Stations






























Interactive Weather Map
Tropical Storm Tracking
New forecast layout! Learn more

10-Day Weather Forecast

Advertisements
Track Severe Weather on mobile